Terminal Aerodrome Forecast
Issued by NWS

Home | Current Version | Previous Version | Text Only | Print | Product List | Glossary On
Versions: 1 2 3 4 5 6 7 8 9 10 11 12 13 14
000
FTUS44 KLZK 191130
TAFBPK
TAF
KBPK 191130Z 1912/2012 00000KT 6SM BR SKC
      TEMPO 1912/1914 2SM BR BKN020
     FM191400 14006KT P6SM SCT025 BKN250
     FM191800 15008KT P6SM BKN040
     FM200200 14007KT 4SM BR OVC030=

USA.gov is the U.S. government's official web portal to all federal, state and local government web resources and services.